Henley-on-Thames, United Kingdom
Current Conditions -  °F | °C
As of 7:50 PM on Thursday 23 Oct 2014 (Local Time) from EGUB Reporting Station
Broken Clouds Broken Clouds  
Wind Chill: 59°   Ceiling: 2000
Heat Index: 59°   Visibility: 6mi
Dew Point: 55°   Wind: 8mph
Humidity: 88%   Direction: 170°S
Pressure: 30.03"   Gusts: NA
Location:  51.53°N, 0.9°W
Report Text: EGUB 231850Z 17007KT 9999 FEW014 BKN020 15/13 Q1017 WHT TEMPO SCT014 GRN
Loading
Personal Weather Stations






























Interactive Weather Map
Tropical Storm Tracking
New forecast layout! Learn more

10-Day Weather Forecast

Advertisements
Track Severe Weather on mobile